sensor_id;sensor_type;location;lat;lon;timestamp;temperature;humidity
25074;DHT22;13066;52.042;5.648;2022-07-05T00:01:48;18.40;84.30
25074;DHT22;13066;52.042;5.648;2022-07-05T00:04:16;18.30;84.60
25074;DHT22;13066;52.042;5.648;2022-07-05T00:06:45;18.30;85.00
25074;DHT22;13066;52.042;5.648;2022-07-05T00:09:32;18.30;85.60
25074;DHT22;13066;52.042;5.648;2022-07-05T00:12:00;18.30;86.10
25074;DHT22;13066;52.042;5.648;2022-07-05T00:14:28;18.20;86.20
25074;DHT22;13066;52.042;5.648;2022-07-05T00:16:56;18.20;86.40
25074;DHT22;13066;52.042;5.648;2022-07-05T00:19:24;18.20;86.60
25074;DHT22;13066;52.042;5.648;2022-07-05T00:21:53;18.10;86.80
25074;DHT22;13066;52.042;5.648;2022-07-05T00:24:21;18.10;87.30
25074;DHT22;13066;52.042;5.648;2022-07-05T00:26:50;18.10;87.80
25074;DHT22;13066;52.042;5.648;2022-07-05T00:29:18;18.10;87.90
25074;DHT22;13066;52.042;5.648;2022-07-05T00:31:46;18.10;88.10
25074;DHT22;13066;52.042;5.648;2022-07-05T00:34:15;18.10;88.20
25074;DHT22;13066;52.042;5.648;2022-07-05T00:36:43;18.00;88.30
25074;DHT22;13066;52.042;5.648;2022-07-05T00:39:11;18.00;88.60
25074;DHT22;13066;52.042;5.648;2022-07-05T00:41:40;18.00;89.10
25074;DHT22;13066;52.042;5.648;2022-07-05T00:44:10;18.00;89.60
25074;DHT22;13066;52.042;5.648;2022-07-05T00:46:43;17.90;90.00
25074;DHT22;13066;52.042;5.648;2022-07-05T00:49:11;17.90;90.20
25074;DHT22;13066;52.042;5.648;2022-07-05T00:51:39;17.90;90.30
25074;DHT22;13066;52.042;5.648;2022-07-05T00:54:27;17.90;90.40
25074;DHT22;13066;52.042;5.648;2022-07-05T00:56:56;17.80;90.60
25074;DHT22;13066;52.042;5.648;2022-07-05T00:59:26;17.80;90.70
25074;DHT22;13066;52.042;5.648;2022-07-05T01:01:55;17.80;90.80
25074;DHT22;13066;52.042;5.648;2022-07-05T01:04:23;17.80;90.70
25074;DHT22;13066;52.042;5.648;2022-07-05T01:06:52;17.80;90.70
25074;DHT22;13066;52.042;5.648;2022-07-05T01:09:22;17.70;90.80
25074;DHT22;13066;52.042;5.648;2022-07-05T01:11:51;17.70;90.80
25074;DHT22;13066;52.042;5.648;2022-07-05T01:14:22;17.70;90.70
25074;DHT22;13066;52.042;5.648;2022-07-05T01:16:52;17.70;90.80
25074;DHT22;13066;52.042;5.648;2022-07-05T01:19:21;17.60;90.80
25074;DHT22;13066;52.042;5.648;2022-07-05T01:21:50;17.60;90.90
25074;DHT22;13066;52.042;5.648;2022-07-05T01:24:20;17.60;90.90
25074;DHT22;13066;52.042;5.648;2022-07-05T01:26:49;17.50;90.90
25074;DHT22;13066;52.042;5.648;2022-07-05T01:29:18;17.50;91.00
25074;DHT22;13066;52.042;5.648;2022-07-05T01:31:46;17.50;91.50
25074;DHT22;13066;52.042;5.648;2022-07-05T01:34:14;17.50;91.60
25074;DHT22;13066;52.042;5.648;2022-07-05T01:36:43;17.50;91.30
25074;DHT22;13066;52.042;5.648;2022-07-05T01:39:11;17.40;91.40
25074;DHT22;13066;52.042;5.648;2022-07-05T01:41:41;17.40;91.60
25074;DHT22;13066;52.042;5.648;2022-07-05T01:44:09;17.40;91.70
25074;DHT22;13066;52.042;5.648;2022-07-05T01:46:38;17.40;91.80
25074;DHT22;13066;52.042;5.648;2022-07-05T01:49:09;17.30;91.80
25074;DHT22;13066;52.042;5.648;2022-07-05T01:51:41;17.30;91.90
25074;DHT22;13066;52.042;5.648;2022-07-05T01:54:10;17.30;92.00
25074;DHT22;13066;52.042;5.648;2022-07-05T01:56:40;17.30;92.00
25074;DHT22;13066;52.042;5.648;2022-07-05T01:59:08;17.30;92.10
25074;DHT22;13066;52.042;5.648;2022-07-05T02:01:37;17.20;92.10
25074;DHT22;13066;52.042;5.648;2022-07-05T02:04:07;17.20;92.50
25074;DHT22;13066;52.042;5.648;2022-07-05T02:06:36;17.20;92.20
25074;DHT22;13066;52.042;5.648;2022-07-05T02:09:05;17.20;92.30
25074;DHT22;13066;52.042;5.648;2022-07-05T02:11:34;17.20;92.30
25074;DHT22;13066;52.042;5.648;2022-07-05T02:14:04;17.20;92.30
25074;DHT22;13066;52.042;5.648;2022-07-05T02:16:32;17.10;92.20
25074;DHT22;13066;52.042;5.648;2022-07-05T02:19:00;17.10;92.20
25074;DHT22;13066;52.042;5.648;2022-07-05T02:21:28;17.10;92.30
25074;DHT22;13066;52.042;5.648;2022-07-05T02:23:56;17.10;92.40
25074;DHT22;13066;52.042;5.648;2022-07-05T02:26:25;17.10;92.50
25074;DHT22;13066;52.042;5.648;2022-07-05T02:28:53;17.10;92.60
25074;DHT22;13066;52.042;5.648;2022-07-05T02:31:22;17.10;92.70
25074;DHT22;13066;52.042;5.648;2022-07-05T02:33:50;17.10;92.80
25074;DHT22;13066;52.042;5.648;2022-07-05T02:36:19;17.10;92.80
25074;DHT22;13066;52.042;5.648;2022-07-05T02:38:48;17.10;92.70
25074;DHT22;13066;52.042;5.648;2022-07-05T02:41:16;17.10;92.70
25074;DHT22;13066;52.042;5.648;2022-07-05T02:43:44;17.10;92.70
25074;DHT22;13066;52.042;5.648;2022-07-05T02:46:12;17.10;92.70
25074;DHT22;13066;52.042;5.648;2022-07-05T02:48:42;17.20;92.80
25074;DHT22;13066;52.042;5.648;2022-07-05T02:51:10;17.10;92.70
25074;DHT22;13066;52.042;5.648;2022-07-05T02:53:38;17.10;92.80
25074;DHT22;13066;52.042;5.648;2022-07-05T02:56:07;17.10;92.90
25074;DHT22;13066;52.042;5.648;2022-07-05T02:58:36;17.10;93.00
25074;DHT22;13066;52.042;5.648;2022-07-05T03:01:05;17.20;93.10
25074;DHT22;13066;52.042;5.648;2022-07-05T03:03:33;17.10;93.40
25074;DHT22;13066;52.042;5.648;2022-07-05T03:06:02;17.20;93.10
25074;DHT22;13066;52.042;5.648;2022-07-05T03:08:31;17.20;93.10
25074;DHT22;13066;52.042;5.648;2022-07-05T03:10:59;17.20;93.10
25074;DHT22;13066;52.042;5.648;2022-07-05T03:13:27;17.20;93.20
25074;DHT22;13066;52.042;5.648;2022-07-05T03:15:55;17.20;93.30
25074;DHT22;13066;52.042;5.648;2022-07-05T03:18:23;17.20;93.40
25074;DHT22;13066;52.042;5.648;2022-07-05T03:20:52;17.20;93.50
25074;DHT22;13066;52.042;5.648;2022-07-05T03:23:21;17.20;93.60
25074;DHT22;13066;52.042;5.648;2022-07-05T03:25:49;17.20;93.80
25074;DHT22;13066;52.042;5.648;2022-07-05T03:28:17;17.20;93.90
25074;DHT22;13066;52.042;5.648;2022-07-05T03:30:45;17.20;94.00
25074;DHT22;13066;52.042;5.648;2022-07-05T03:33:13;17.30;94.00
25074;DHT22;13066;52.042;5.648;2022-07-05T03:35:41;17.30;94.00
25074;DHT22;13066;52.042;5.648;2022-07-05T03:38:09;17.30;93.90
25074;DHT22;13066;52.042;5.648;2022-07-05T03:40:39;17.40;93.90
25074;DHT22;13066;52.042;5.648;2022-07-05T03:43:07;17.40;93.90
25074;DHT22;13066;52.042;5.648;2022-07-05T03:45:35;17.40;94.00
25074;DHT22;13066;52.042;5.648;2022-07-05T03:48:04;17.40;94.10
25074;DHT22;13066;52.042;5.648;2022-07-05T03:50:52;17.40;94.10
25074;DHT22;13066;52.042;5.648;2022-07-05T03:53:21;17.40;94.10
25074;DHT22;13066;52.042;5.648;2022-07-05T03:55:50;17.40;94.10
25074;DHT22;13066;52.042;5.648;2022-07-05T03:58:18;17.50;94.20
25074;DHT22;13066;52.042;5.648;2022-07-05T04:00:46;17.50;94.20
25074;DHT22;13066;52.042;5.648;2022-07-05T04:03:14;17.50;94.30
25074;DHT22;13066;52.042;5.648;2022-07-05T04:05:42;17.50;94.40
25074;DHT22;13066;52.042;5.648;2022-07-05T04:08:10;17.50;94.80
25074;DHT22;13066;52.042;5.648;2022-07-05T04:10:38;17.50;94.50
25074;DHT22;13066;52.042;5.648;2022-07-05T04:13:08;17.60;94.50
25074;DHT22;13066;52.042;5.648;2022-07-05T04:15:36;17.50;94.40
25074;DHT22;13066;52.042;5.648;2022-07-05T04:18:04;17.60;94.40
25074;DHT22;13066;52.042;5.648;2022-07-05T04:20:32;17.60;94.40
25074;DHT22;13066;52.042;5.648;2022-07-05T04:23:00;17.60;94.50
25074;DHT22;13066;52.042;5.648;2022-07-05T04:25:28;17.70;94.60
25074;DHT22;13066;52.042;5.648;2022-07-05T04:27:57;17.70;94.60
25074;DHT22;13066;52.042;5.648;2022-07-05T04:30:26;17.70;94.60
25074;DHT22;13066;52.042;5.648;2022-07-05T04:32:54;17.70;94.60
25074;DHT22;13066;52.042;5.648;2022-07-05T04:35:23;17.80;94.60
25074;DHT22;13066;52.042;5.648;2022-07-05T04:37:51;17.70;94.60
25074;DHT22;13066;52.042;5.648;2022-07-05T04:40:19;17.80;94.70
25074;DHT22;13066;52.042;5.648;2022-07-05T04:42:47;17.80;94.60
25074;DHT22;13066;52.042;5.648;2022-07-05T04:45:15;17.80;94.60
25074;DHT22;13066;52.042;5.648;2022-07-05T04:47:44;17.80;94.50
25074;DHT22;13066;52.042;5.648;2022-07-05T04:50:12;17.80;94.50
25074;DHT22;13066;52.042;5.648;2022-07-05T04:52:41;17.80;94.40
25074;DHT22;13066;52.042;5.648;2022-07-05T04:55:09;17.90;94.40
25074;DHT22;13066;52.042;5.648;2022-07-05T04:57:38;17.90;94.40
25074;DHT22;13066;52.042;5.648;2022-07-05T05:00:07;17.90;94.40
25074;DHT22;13066;52.042;5.648;2022-07-05T05:02:36;17.90;94.40
25074;DHT22;13066;52.042;5.648;2022-07-05T05:05:06;18.00;94.40
25074;DHT22;13066;52.042;5.648;2022-07-05T05:07:34;18.00;94.30
25074;DHT22;13066;52.042;5.648;2022-07-05T05:10:05;18.00;94.30
25074;DHT22;13066;52.042;5.648;2022-07-05T05:12:33;18.00;94.30
25074;DHT22;13066;52.042;5.648;2022-07-05T05:15:02;18.10;94.20
25074;DHT22;13066;52.042;5.648;2022-07-05T05:17:35;18.10;94.20
25074;DHT22;13066;52.042;5.648;2022-07-05T05:20:11;18.20;94.10
25074;DHT22;13066;52.042;5.648;2022-07-05T05:22:39;18.20;94.10
25074;DHT22;13066;52.042;5.648;2022-07-05T05:25:09;18.30;94.10
25074;DHT22;13066;52.042;5.648;2022-07-05T05:27:41;18.30;94.00
25074;DHT22;13066;52.042;5.648;2022-07-05T05:30:15;18.30;93.90
25074;DHT22;13066;52.042;5.648;2022-07-05T05:32:43;18.40;93.90
25074;DHT22;13066;52.042;5.648;2022-07-05T05:35:13;18.40;93.80
25074;DHT22;13066;52.042;5.648;2022-07-05T05:37:46;18.40;93.80
25074;DHT22;13066;52.042;5.648;2022-07-05T05:40:15;18.50;93.70
25074;DHT22;13066;52.042;5.648;2022-07-05T05:42:43;18.50;93.60
25074;DHT22;13066;52.042;5.648;2022-07-05T05:45:12;18.50;93.60
25074;DHT22;13066;52.042;5.648;2022-07-05T05:47:48;18.50;93.60
25074;DHT22;13066;52.042;5.648;2022-07-05T05:50:21;18.50;93.60
25074;DHT22;13066;52.042;5.648;2022-07-05T05:52:50;18.50;93.60
25074;DHT22;13066;52.042;5.648;2022-07-05T05:55:19;18.50;93.70
25074;DHT22;13066;52.042;5.648;2022-07-05T05:57:47;18.40;93.80
25074;DHT22;13066;52.042;5.648;2022-07-05T06:00:16;18.50;93.80
25074;DHT22;13066;52.042;5.648;2022-07-05T06:02:46;18.50;93.90
25074;DHT22;13066;52.042;5.648;2022-07-05T06:05:14;18.50;94.00
25074;DHT22;13066;52.042;5.648;2022-07-05T06:07:49;18.50;94.20
25074;DHT22;13066;52.042;5.648;2022-07-05T06:10:19;18.50;94.30
25074;DHT22;13066;52.042;5.648;2022-07-05T06:12:49;18.60;94.30
25074;DHT22;13066;52.042;5.648;2022-07-05T06:15:17;18.60;94.30
25074;DHT22;13066;52.042;5.648;2022-07-05T06:17:46;18.60;94.20
25074;DHT22;13066;52.042;5.648;2022-07-05T06:20:17;18.60;94.10
25074;DHT22;13066;52.042;5.648;2022-07-05T06:22:46;18.60;94.00
25074;DHT22;13066;52.042;5.648;2022-07-05T06:25:15;18.70;94.00
25074;DHT22;13066;52.042;5.648;2022-07-05T06:27:52;18.70;94.00
25074;DHT22;13066;52.042;5.648;2022-07-05T06:30:23;18.80;94.00
25074;DHT22;13066;52.042;5.648;2022-07-05T06:32:52;18.80;94.00
25074;DHT22;13066;52.042;5.648;2022-07-05T06:35:21;18.80;94.00
25074;DHT22;13066;52.042;5.648;2022-07-05T06:37:53;18.90;94.00
25074;DHT22;13066;52.042;5.648;2022-07-05T06:40:21;18.90;94.00
25074;DHT22;13066;52.042;5.648;2022-07-05T06:42:50;18.90;94.00
25074;DHT22;13066;52.042;5.648;2022-07-05T06:45:18;19.00;93.90
25074;DHT22;13066;52.042;5.648;2022-07-05T06:47:54;19.00;93.90
25074;DHT22;13066;52.042;5.648;2022-07-05T06:50:22;19.00;94.00
25074;DHT22;13066;52.042;5.648;2022-07-05T06:52:52;19.00;94.10
25074;DHT22;13066;52.042;5.648;2022-07-05T06:55:20;19.00;94.10
25074;DHT22;13066;52.042;5.648;2022-07-05T06:57:48;19.10;94.00
25074;DHT22;13066;52.042;5.648;2022-07-05T07:00:37;19.10;93.90
25074;DHT22;13066;52.042;5.648;2022-07-05T07:03:25;19.10;93.80
25074;DHT22;13066;52.042;5.648;2022-07-05T07:06:13;19.20;94.10
25074;DHT22;13066;52.042;5.648;2022-07-05T07:08:43;19.20;93.70
25074;DHT22;13066;52.042;5.648;2022-07-05T07:11:29;19.20;93.70
25074;DHT22;13066;52.042;5.648;2022-07-05T07:13:57;19.20;93.30
25074;DHT22;13066;52.042;5.648;2022-07-05T07:16:25;19.30;93.50
25074;DHT22;13066;52.042;5.648;2022-07-05T07:18:53;19.30;93.10
25074;DHT22;13066;52.042;5.648;2022-07-05T07:21:40;19.50;92.90
25074;DHT22;13066;52.042;5.648;2022-07-05T07:24:11;19.60;92.80
25074;DHT22;13066;52.042;5.648;2022-07-05T07:26:39;19.70;92.60
25074;DHT22;13066;52.042;5.648;2022-07-05T07:29:22;19.80;92.10
25074;DHT22;13066;52.042;5.648;2022-07-05T07:31:50;19.90;91.90
25074;DHT22;13066;52.042;5.648;2022-07-05T07:34:18;20.10;91.60
25074;DHT22;13066;52.042;5.648;2022-07-05T07:36:46;20.20;90.90
25074;DHT22;13066;52.042;5.648;2022-07-05T07:39:16;20.40;90.50
25074;DHT22;13066;52.042;5.648;2022-07-05T07:41:45;20.40;90.10
25074;DHT22;13066;52.042;5.648;2022-07-05T07:44:13;20.60;88.70
25074;DHT22;13066;52.042;5.648;2022-07-05T07:46:41;20.70;87.20
25074;DHT22;13066;52.042;5.648;2022-07-05T07:49:10;20.80;85.20
25074;DHT22;13066;52.042;5.648;2022-07-05T07:51:39;20.80;83.90
25074;DHT22;13066;52.042;5.648;2022-07-05T07:54:08;20.90;83.00
25074;DHT22;13066;52.042;5.648;2022-07-05T07:56:39;20.90;82.90
25074;DHT22;13066;52.042;5.648;2022-07-05T07:59:07;21.00;82.60
25074;DHT22;13066;52.042;5.648;2022-07-05T08:01:36;21.00;82.00
25074;DHT22;13066;52.042;5.648;2022-07-05T08:04:10;21.00;81.30
25074;DHT22;13066;52.042;5.648;2022-07-05T08:06:40;21.10;80.90
25074;DHT22;13066;52.042;5.648;2022-07-05T08:09:08;21.20;81.00
25074;DHT22;13066;52.042;5.648;2022-07-05T08:11:44;21.30;80.20
25074;DHT22;13066;52.042;5.648;2022-07-05T08:14:14;21.30;80.00
25074;DHT22;13066;52.042;5.648;2022-07-05T08:16:42;21.40;80.20
25074;DHT22;13066;52.042;5.648;2022-07-05T08:19:17;21.50;80.20
25074;DHT22;13066;52.042;5.648;2022-07-05T08:22:03;21.60;79.50
25074;DHT22;13066;52.042;5.648;2022-07-05T08:24:31;21.60;79.40
25074;DHT22;13066;52.042;5.648;2022-07-05T08:27:00;21.70;79.20
25074;DHT22;13066;52.042;5.648;2022-07-05T08:29:29;21.80;79.00
25074;DHT22;13066;52.042;5.648;2022-07-05T08:31:57;21.90;78.70
25074;DHT22;13066;52.042;5.648;2022-07-05T08:34:25;22.00;78.60
25074;DHT22;13066;52.042;5.648;2022-07-05T08:36:54;22.00;78.50
25074;DHT22;13066;52.042;5.648;2022-07-05T08:39:22;22.10;77.60
25074;DHT22;13066;52.042;5.648;2022-07-05T08:41:51;22.10;76.90
25074;DHT22;13066;52.042;5.648;2022-07-05T08:44:22;22.20;76.40
25074;DHT22;13066;52.042;5.648;2022-07-05T08:46:51;22.20;75.80
25074;DHT22;13066;52.042;5.648;2022-07-05T08:49:22;22.30;76.20
25074;DHT22;13066;52.042;5.648;2022-07-05T08:51:51;22.30;76.80
25074;DHT22;13066;52.042;5.648;2022-07-05T08:54:21;22.30;76.90
25074;DHT22;13066;52.042;5.648;2022-07-05T08:56:51;22.40;77.10
25074;DHT22;13066;52.042;5.648;2022-07-05T08:59:39;22.40;76.10
25074;DHT22;13066;52.042;5.648;2022-07-05T09:02:11;22.40;75.20
25074;DHT22;13066;52.042;5.648;2022-07-05T09:04:42;22.40;75.40
25074;DHT22;13066;52.042;5.648;2022-07-05T09:07:14;22.30;75.20
25074;DHT22;13066;52.042;5.648;2022-07-05T09:09:47;22.30;75.20
25074;DHT22;13066;52.042;5.648;2022-07-05T09:12:17;22.20;75.70
25074;DHT22;13066;52.042;5.648;2022-07-05T09:14:51;22.20;76.10
25074;DHT22;13066;52.042;5.648;2022-07-05T09:17:20;22.20;75.70
25074;DHT22;13066;52.042;5.648;2022-07-05T09:20:04;22.10;74.50
25074;DHT22;13066;52.042;5.648;2022-07-05T09:22:41;22.00;74.10
25074;DHT22;13066;52.042;5.648;2022-07-05T09:25:14;22.00;73.80
25074;DHT22;13066;52.042;5.648;2022-07-05T09:27:48;21.90;73.60
25074;DHT22;13066;52.042;5.648;2022-07-05T09:30:32;21.90;73.20
25074;DHT22;13066;52.042;5.648;2022-07-05T09:33:06;22.00;73.10
25074;DHT22;13066;52.042;5.648;2022-07-05T09:35:36;22.00;73.90
25074;DHT22;13066;52.042;5.648;2022-07-05T09:38:04;22.00;74.70
25074;DHT22;13066;52.042;5.648;2022-07-05T09:40:33;22.00;75.20
25074;DHT22;13066;52.042;5.648;2022-07-05T09:43:13;22.00;75.50
25074;DHT22;13066;52.042;5.648;2022-07-05T09:45:52;21.90;75.70
25074;DHT22;13066;52.042;5.648;2022-07-05T09:48:22;21.90;75.60
25074;DHT22;13066;52.042;5.648;2022-07-05T09:51:08;21.90;74.50
25074;DHT22;13066;52.042;5.648;2022-07-05T09:53:58;21.90;74.20
25074;DHT22;13066;52.042;5.648;2022-07-05T09:56:29;21.80;74.10
25074;DHT22;13066;52.042;5.648;2022-07-05T09:59:15;21.90;73.70
25074;DHT22;13066;52.042;5.648;2022-07-05T10:01:45;21.90;72.80
25074;DHT22;13066;52.042;5.648;2022-07-05T10:04:13;21.90;72.40
25074;DHT22;13066;52.042;5.648;2022-07-05T10:06:42;21.90;71.70
25074;DHT22;13066;52.042;5.648;2022-07-05T10:09:11;22.00;71.10
25074;DHT22;13066;52.042;5.648;2022-07-05T10:11:42;22.00;70.20
25074;DHT22;13066;52.042;5.648;2022-07-05T10:14:14;22.10;68.90
25074;DHT22;13066;52.042;5.648;2022-07-05T10:16:47;22.10;69.10
25074;DHT22;13066;52.042;5.648;2022-07-05T10:19:20;22.00;69.00
25074;DHT22;13066;52.042;5.648;2022-07-05T10:21:49;21.90;68.60
25074;DHT22;13066;52.042;5.648;2022-07-05T10:24:38;21.80;68.30
25074;DHT22;13066;52.042;5.648;2022-07-05T10:27:08;21.80;68.10
25074;DHT22;13066;52.042;5.648;2022-07-05T10:29:37;21.70;68.20
25074;DHT22;13066;52.042;5.648;2022-07-05T10:32:08;21.70;68.20
25074;DHT22;13066;52.042;5.648;2022-07-05T10:34:37;21.70;68.50
25074;DHT22;13066;52.042;5.648;2022-07-05T10:37:29;21.70;68.50
25074;DHT22;13066;52.042;5.648;2022-07-05T10:39:58;21.80;68.60
25074;DHT22;13066;52.042;5.648;2022-07-05T10:42:30;21.80;68.20
25074;DHT22;13066;52.042;5.648;2022-07-05T10:44:59;21.80;66.50
25074;DHT22;13066;52.042;5.648;2022-07-05T10:47:29;21.90;67.20
25074;DHT22;13066;52.042;5.648;2022-07-05T10:50:01;22.00;67.70
25074;DHT22;13066;52.042;5.648;2022-07-05T10:52:30;22.10;67.10
25074;DHT22;13066;52.042;5.648;2022-07-05T10:55:17;22.20;67.00
25074;DHT22;13066;52.042;5.648;2022-07-05T10:58:27;22.30;67.00
25074;DHT22;13066;52.042;5.648;2022-07-05T11:04:28;22.40;66.00
25074;DHT22;13066;52.042;5.648;2022-07-05T11:07:02;22.40;66.50
25074;DHT22;13066;52.042;5.648;2022-07-05T11:09:31;22.40;66.50
25074;DHT22;13066;52.042;5.648;2022-07-05T11:12:17;22.50;65.10
25074;DHT22;13066;52.042;5.648;2022-07-05T11:15:04;22.50;63.70
25074;DHT22;13066;52.042;5.648;2022-07-05T11:17:33;22.40;62.50
25074;DHT22;13066;52.042;5.648;2022-07-05T11:20:29;22.40;62.30
25074;DHT22;13066;52.042;5.648;2022-07-05T11:23:09;22.40;61.60
25074;DHT22;13066;52.042;5.648;2022-07-05T11:25:40;22.30;61.10
25074;DHT22;13066;52.042;5.648;2022-07-05T11:28:13;22.30;61.40
25074;DHT22;13066;52.042;5.648;2022-07-05T11:30:48;22.40;61.80
25074;DHT22;13066;52.042;5.648;2022-07-05T11:33:36;22.50;62.50
25074;DHT22;13066;52.042;5.648;2022-07-05T11:36:19;22.50;62.80
25074;DHT22;13066;52.042;5.648;2022-07-05T11:39:10;22.60;62.60
25074;DHT22;13066;52.042;5.648;2022-07-05T11:41:42;22.70;62.40
25074;DHT22;13066;52.042;5.648;2022-07-05T11:44:11;22.70;63.00
25074;DHT22;13066;52.042;5.648;2022-07-05T11:46:41;22.80;61.90
25074;DHT22;13066;52.042;5.648;2022-07-05T11:49:19;22.80;61.40
25074;DHT22;13066;52.042;5.648;2022-07-05T11:51:57;22.90;61.20
25074;DHT22;13066;52.042;5.648;2022-07-05T11:54:27;22.90;61.30
25074;DHT22;13066;52.042;5.648;2022-07-05T11:56:56;22.90;60.70
25074;DHT22;13066;52.042;5.648;2022-07-05T11:59:25;23.00;60.90
25074;DHT22;13066;52.042;5.648;2022-07-05T12:01:54;23.00;61.60
25074;DHT22;13066;52.042;5.648;2022-07-05T12:04:25;23.10;61.20
25074;DHT22;13066;52.042;5.648;2022-07-05T12:06:54;23.10;61.10
25074;DHT22;13066;52.042;5.648;2022-07-05T12:09:26;23.20;60.80
25074;DHT22;13066;52.042;5.648;2022-07-05T12:11:56;23.20;60.80
25074;DHT22;13066;52.042;5.648;2022-07-05T12:14:49;23.20;60.30
25074;DHT22;13066;52.042;5.648;2022-07-05T12:17:19;23.20;60.20
25074;DHT22;13066;52.042;5.648;2022-07-05T12:19:53;23.20;60.10
25074;DHT22;13066;52.042;5.648;2022-07-05T12:22:29;23.20;59.70
25074;DHT22;13066;52.042;5.648;2022-07-05T12:24:59;23.10;59.10
25074;DHT22;13066;52.042;5.648;2022-07-05T12:27:29;23.00;59.50
25074;DHT22;13066;52.042;5.648;2022-07-05T12:29:57;23.00;59.80
25074;DHT22;13066;52.042;5.648;2022-07-05T12:32:26;23.00;59.70
25074;DHT22;13066;52.042;5.648;2022-07-05T12:34:54;23.00;60.30
25074;DHT22;13066;52.042;5.648;2022-07-05T12:37:31;23.10;60.40
25074;DHT22;13066;52.042;5.648;2022-07-05T12:40:07;23.10;60.10
25074;DHT22;13066;52.042;5.648;2022-07-05T12:42:37;23.20;60.20
25074;DHT22;13066;52.042;5.648;2022-07-05T12:45:10;23.20;60.00
25074;DHT22;13066;52.042;5.648;2022-07-05T12:47:48;23.30;59.90
25074;DHT22;13066;52.042;5.648;2022-07-05T12:50:17;23.40;59.80
25074;DHT22;13066;52.042;5.648;2022-07-05T12:53:04;23.50;59.00
25074;DHT22;13066;52.042;5.648;2022-07-05T12:55:50;23.50;58.30
25074;DHT22;13066;52.042;5.648;2022-07-05T12:58:45;23.40;58.30
25074;DHT22;13066;52.042;5.648;2022-07-05T13:01:25;23.30;57.90
25074;DHT22;13066;52.042;5.648;2022-07-05T13:04:05;23.30;57.80
25074;DHT22;13066;52.042;5.648;2022-07-05T13:06:43;23.20;57.60
25074;DHT22;13066;52.042;5.648;2022-07-05T13:09:14;23.10;57.20
25074;DHT22;13066;52.042;5.648;2022-07-05T13:11:44;23.00;57.30
25074;DHT22;13066;52.042;5.648;2022-07-05T13:14:12;23.00;57.70
25074;DHT22;13066;52.042;5.648;2022-07-05T13:16:40;23.00;57.50
25074;DHT22;13066;52.042;5.648;2022-07-05T13:19:11;23.00;57.00
25074;DHT22;13066;52.042;5.648;2022-07-05T13:21:39;23.00;57.10
25074;DHT22;13066;52.042;5.648;2022-07-05T13:24:07;23.10;57.30
25074;DHT22;13066;52.042;5.648;2022-07-05T13:26:35;23.10;56.80
25074;DHT22;13066;52.042;5.648;2022-07-05T13:29:05;23.20;57.20
25074;DHT22;13066;52.042;5.648;2022-07-05T13:31:33;23.30;56.20
25074;DHT22;13066;52.042;5.648;2022-07-05T13:34:01;23.30;55.70
25074;DHT22;13066;52.042;5.648;2022-07-05T13:36:30;23.40;55.40
25074;DHT22;13066;52.042;5.648;2022-07-05T13:38:58;23.50;55.20
25074;DHT22;13066;52.042;5.648;2022-07-05T13:41:26;23.50;54.70
25074;DHT22;13066;52.042;5.648;2022-07-05T13:43:54;23.50;54.60
25074;DHT22;13066;52.042;5.648;2022-07-05T13:46:23;23.60;54.70
25074;DHT22;13066;52.042;5.648;2022-07-05T13:48:52;23.60;54.60
25074;DHT22;13066;52.042;5.648;2022-07-05T13:51:20;23.70;54.50
25074;DHT22;13066;52.042;5.648;2022-07-05T13:53:55;23.70;53.30
25074;DHT22;13066;52.042;5.648;2022-07-05T13:56:23;23.60;53.10
25074;DHT22;13066;52.042;5.648;2022-07-05T13:58:52;23.70;53.20
25074;DHT22;13066;52.042;5.648;2022-07-05T14:01:21;23.70;53.10
25074;DHT22;13066;52.042;5.648;2022-07-05T14:03:55;23.80;53.70
25074;DHT22;13066;52.042;5.648;2022-07-05T14:06:25;23.80;53.10
25074;DHT22;13066;52.042;5.648;2022-07-05T14:08:53;23.80;52.20
25074;DHT22;13066;52.042;5.648;2022-07-05T14:11:22;23.90;51.90
25074;DHT22;13066;52.042;5.648;2022-07-05T14:13:51;23.90;51.80
25074;DHT22;13066;52.042;5.648;2022-07-05T14:16:20;23.90;51.70
25074;DHT22;13066;52.042;5.648;2022-07-05T14:18:48;24.00;51.90
25074;DHT22;13066;52.042;5.648;2022-07-05T14:21:18;24.10;52.00
25074;DHT22;13066;52.042;5.648;2022-07-05T14:23:59;24.20;51.90
25074;DHT22;13066;52.042;5.648;2022-07-05T14:26:27;24.30;50.90
25074;DHT22;13066;52.042;5.648;2022-07-05T14:28:55;24.50;50.00
25074;DHT22;13066;52.042;5.648;2022-07-05T14:31:23;24.50;49.60
25074;DHT22;13066;52.042;5.648;2022-07-05T14:33:51;24.60;49.70
25074;DHT22;13066;52.042;5.648;2022-07-05T14:36:21;24.70;49.60
25074;DHT22;13066;52.042;5.648;2022-07-05T14:38:50;24.80;48.90
25074;DHT22;13066;52.042;5.648;2022-07-05T14:41:18;24.90;48.60
25074;DHT22;13066;52.042;5.648;2022-07-05T14:43:46;24.90;48.00
25074;DHT22;13066;52.042;5.648;2022-07-05T14:46:14;24.80;47.80
25074;DHT22;13066;52.042;5.648;2022-07-05T14:48:46;24.90;48.30
25074;DHT22;13066;52.042;5.648;2022-07-05T14:51:15;25.10;47.40
25074;DHT22;13066;52.042;5.648;2022-07-05T14:53:44;25.20;47.00
25074;DHT22;13066;52.042;5.648;2022-07-05T14:56:14;25.30;47.20
25074;DHT22;13066;52.042;5.648;2022-07-05T14:58:43;25.40;46.90
25074;DHT22;13066;52.042;5.648;2022-07-05T15:01:12;25.60;47.00
25074;DHT22;13066;52.042;5.648;2022-07-05T15:03:40;25.70;46.30
25074;DHT22;13066;52.042;5.648;2022-07-05T15:06:08;25.80;46.10
25074;DHT22;13066;52.042;5.648;2022-07-05T15:08:36;25.90;44.90
25074;DHT22;13066;52.042;5.648;2022-07-05T15:11:06;25.90;45.00
25074;DHT22;13066;52.042;5.648;2022-07-05T15:13:34;25.90;45.40
25074;DHT22;13066;52.042;5.648;2022-07-05T15:16:03;26.00;44.80
25074;DHT22;13066;52.042;5.648;2022-07-05T15:18:32;26.10;45.20
25074;DHT22;13066;52.042;5.648;2022-07-05T15:21:01;26.10;44.90
25074;DHT22;13066;52.042;5.648;2022-07-05T15:23:30;26.10;44.40
25074;DHT22;13066;52.042;5.648;2022-07-05T15:25:59;26.00;44.30
25074;DHT22;13066;52.042;5.648;2022-07-05T15:28:28;25.80;44.40
25074;DHT22;13066;52.042;5.648;2022-07-05T15:30:56;25.60;44.40
25074;DHT22;13066;52.042;5.648;2022-07-05T15:33:24;25.40;44.80
25074;DHT22;13066;52.042;5.648;2022-07-05T15:35:57;25.20;45.40
25074;DHT22;13066;52.042;5.648;2022-07-05T15:38:26;25.10;45.80
25074;DHT22;13066;52.042;5.648;2022-07-05T15:40:54;25.10;46.40
25074;DHT22;13066;52.042;5.648;2022-07-05T15:43:24;25.10;46.30
25074;DHT22;13066;52.042;5.648;2022-07-05T15:45:56;25.10;46.50
25074;DHT22;13066;52.042;5.648;2022-07-05T15:48:24;25.20;46.50
25074;DHT22;13066;52.042;5.648;2022-07-05T15:50:52;25.10;46.10
25074;DHT22;13066;52.042;5.648;2022-07-05T15:53:27;25.10;47.00
25074;DHT22;13066;52.042;5.648;2022-07-05T15:55:55;25.10;47.10
25074;DHT22;13066;52.042;5.648;2022-07-05T15:58:27;25.10;46.50